Time;durP1;ratioP1;P1;durP2;ratioP2;P2;SDS_P1;SDS_P2;PMS_P1;PMS_P2;Temp;Humidity;BMP_temperature;BMP_pressure;BME280_temperature;BME280_humidity;BME280_pressure;Samples;Min_cycle;Max_cycle;Signal;HPM_P1;HPM_P2
2021/01/26 00:03:01;;;;;;;8.90;1.47;;;;;;;-0.17;100.00;98737.42;3846034;75;393049;-77
2021/01/26 00:08:22;;;;;;;4.17;2.90;;;;;;;-0.18;100.00;98738.55;3845813;75;396130;-77
2021/01/26 00:13:43;;;;;;;0.80;0.50;;;;;;;-0.21;100.00;98728.97;3846482;75;383800;-77
2021/01/26 00:19:06;;;;;;;1.67;1.57;;;;;;;-0.29;100.00;98734.70;3846086;75;394359;-76
2021/01/26 00:24:27;;;;;;;4.20;1.40;;;;;;;-0.38;100.00;98727.26;3846016;75;396365;-76
2021/01/26 00:29:48;;;;;;;0.80;0.50;;;;;;;-0.40;100.00;98723.32;3846693;76;383544;-76
2021/01/26 00:35:10;;;;;;;4.07;1.30;;;;;;;-0.50;100.00;98723.75;3845876;75;393971;-76
2021/01/26 00:40:32;;;;;;;0.80;0.60;;;;;;;-0.58;100.00;98728.15;3847066;75;383587;-76
2021/01/26 00:45:53;;;;;;;1.60;0.70;;;;;;;-0.56;100.00;98729.93;3846427;75;394016;-76
2021/01/26 00:51:14;;;;;;;1.20;1.10;;;;;;;-0.60;100.00;98725.53;3846000;76;394292;-77
2021/01/26 00:56:35;;;;;;;1.03;0.93;;;;;;;-0.56;100.00;98720.48;3845937;75;395002;-76
2021/01/26 01:01:57;;;;;;;0.90;0.70;;;;;;;-0.56;100.00;98725.10;3846545;75;387824;-76
2021/01/26 01:07:19;;;;;;;2.97;2.10;;;;;;;-0.64;100.00;98728.69;3844993;75;396024;-76
2021/01/26 01:12:41;;;;;;;0.80;0.50;;;;;;;-0.76;100.00;98730.80;3846649;75;383587;-76
2021/01/26 01:18:02;;;;;;;4.20;2.03;;;;;;;-0.86;100.00;98734.50;3845546;75;396169;-76
2021/01/26 01:23:23;;;;;;;2.93;2.63;;;;;;;-0.89;100.00;98734.38;3844851;75;396137;-76
2021/01/26 01:28:44;;;;;;;2.10;2.00;;;;;;;-1.01;100.00;98724.30;3845903;75;383835;-76
2021/01/26 01:34:06;;;;;;;2.30;2.10;;;;;;;-1.05;100.00;98727.45;3845397;75;396473;-77
2021/01/26 01:39:27;;;;;;;3.47;3.17;;;;;;;-1.02;100.00;98724.10;3846835;75;393006;-77
2021/01/26 01:44:48;;;;;;;0.80;0.60;;;;;;;-0.92;100.00;98728.28;3846758;75;383579;-76
2021/01/26 01:50:13;;;;;;;1.27;1.17;;;;;;;-0.89;100.00;98718.17;3845484;75;396157;-76
2021/01/26 01:55:37;;;;;;;3.10;2.50;;;;;;;-0.83;100.00;98720.31;3845174;75;396299;-76
2021/01/26 02:01:01;;;;;;;0.90;0.60;;;;;;;-0.84;100.00;98714.68;3846733;75;383574;-76
2021/01/26 02:06:25;;;;;;;1.73;1.63;;;;;;;-0.82;100.00;98707.05;3846945;76;396027;-76
2021/01/26 02:11:47;;;;;;;2.30;1.73;;;;;;;-0.75;100.00;98717.53;3847342;75;394989;-76
2021/01/26 02:17:33;;;;;;;3.03;1.47;;;;;;;-0.70;100.00;98711.13;3847242;75;396102;-76
2021/01/26 02:23:21;;;;;;;6.33;2.97;;;;;;;-0.64;100.00;98717.89;3845594;76;396080;-76
2021/01/26 02:29:00;;;;;;;1.93;1.70;;;;;;;-0.61;100.00;98723.98;3846148;75;388753;-76
2021/01/26 02:34:57;;;;;;;7.30;2.87;;;;;;;-0.54;100.00;98722.28;3845898;75;394031;-76
2021/01/26 02:40:21;;;;;;;1.47;1.37;;;;;;;-0.57;100.00;98717.58;3846230;75;392976;-76
2021/01/26 02:46:05;;;;;;;1.40;1.00;;;;;;;-0.54;100.00;98715.53;3828692;75;387781;-76
2021/01/26 02:51:57;;;;;;;0.97;0.87;;;;;;;-0.53;100.00;98719.81;3828515;75;391876;-76
2021/01/26 02:57:39;;;;;;;1.03;0.80;;;;;;;-0.52;100.00;98717.89;3706586;78;385685;-76
2021/01/26 03:03:15;;;;;;;2.13;2.03;;;;;;;-0.50;100.00;98715.11;3838628;75;393980;-76
2021/01/26 03:08:48;;;;;;;2.93;1.63;;;;;;;-0.44;100.00;98715.10;3825714;77;396181;-76
2021/01/26 03:14:18;;;;;;;0.90;0.80;;;;;;;-0.43;100.00;98717.23;3829028;75;385630;-75
2021/01/26 03:19:40;;;;;;;0.90;0.80;;;;;;;-0.61;100.00;98718.58;3829036;75;383571;-75
2021/01/26 03:25:02;;;;;;;10.00;2.43;;;;;;;-0.84;100.00;98718.73;3828297;75;396547;-75
2021/01/26 03:30:26;;;;;;;2.10;1.97;;;;;;;-0.83;100.00;98714.14;3827517;75;396090;-75
2021/01/26 03:35:47;;;;;;;1.80;1.70;;;;;;;-0.81;100.00;98714.80;3829199;75;396087;-75
2021/01/26 03:41:09;;;;;;;3.20;2.53;;;;;;;-0.78;100.00;98712.02;3830700;75;394215;-75
2021/01/26 03:46:48;;;;;;;3.33;3.03;;;;;;;-0.77;100.00;98709.55;3845351;76;396177;-75
2021/01/26 03:52:26;;;;;;;2.10;1.60;;;;;;;-0.77;100.00;98715.72;3845047;76;396046;-75
2021/01/26 03:57:56;;;;;;;6.57;2.63;;;;;;;-0.71;100.00;98718.42;3846261;76;394321;-75
2021/01/26 04:03:26;;;;;;;2.13;1.93;;;;;;;-0.62;100.00;98717.77;3845299;76;396165;-75
2021/01/26 04:08:53;;;;;;;1.47;1.37;;;;;;;-0.52;100.00;98708.44;3846376;76;385618;-75
2021/01/26 04:14:29;;;;;;;0.80;0.67;;;;;;;-0.34;100.00;98716.56;3846634;76;387697;-75
2021/01/26 04:20:04;;;;;;;1.43;1.33;;;;;;;-0.21;100.00;98715.46;3845997;76;391905;-75
2021/01/26 04:25:29;;;;;;;5.43;1.27;;;;;;;-0.12;100.00;98719.62;3845817;76;394055;-75
2021/01/26 04:30:50;;;;;;;7.30;1.20;;;;;;;-0.03;100.00;98718.94;3845621;76;394276;-75
2021/01/26 04:36:14;;;;;;;1.27;0.80;;;;;;;0.04;100.00;98728.62;3846098;76;394221;-75
2021/01/26 04:41:44;;;;;;;2.27;1.47;;;;;;;0.04;100.00;98725.34;3842910;76;389854;-75
2021/01/26 04:47:33;;;;;;;1.87;1.40;;;;;;;0.08;100.00;98738.42;3828967;75;396083;-75
2021/01/26 04:53:17;;;;;;;2.80;2.30;;;;;;;0.11;100.00;98728.83;3827833;75;396328;-75
2021/01/26 04:59:11;;;;;;;3.53;1.47;;;;;;;0.02;100.00;98715.45;3828030;75;396139;-75
2021/01/26 05:04:35;;;;;;;1.97;1.50;;;;;;;-0.06;100.00;98711.50;3828317;75;395076;-75
2021/01/26 05:10:17;;;;;;;1.73;1.63;;;;;;;-0.04;100.00;98713.87;3828650;74;392149;-75
2021/01/26 05:15:41;;;;;;;2.37;2.20;;;;;;;0.00;100.00;98710.16;3824861;76;396122;-75
2021/01/26 05:21:05;;;;;;;4.83;1.33;;;;;;;0.00;100.00;98710.16;3827647;75;395108;-75
2021/01/26 05:26:26;;;;;;;2.30;2.10;;;;;;;0.01;100.00;98710.36;3827811;75;396078;-75
2021/01/26 05:31:50;;;;;;;1.93;1.13;;;;;;;-0.03;100.00;98708.13;3828527;75;391856;-75
2021/01/26 05:37:15;;;;;;;4.30;1.90;;;;;;;0.08;100.00;98712.73;3827889;75;394343;-75
2021/01/26 05:42:37;;;;;;;1.90;1.80;;;;;;;0.00;100.00;98710.94;3832983;75;390913;-75
2021/01/26 05:48:19;;;;;;;1.47;1.37;;;;;;;0.05;100.00;98713.98;3845597;76;395078;-75
2021/01/26 05:53:41;;;;;;;1.90;1.20;;;;;;;0.06;100.00;98712.27;3847777;75;392141;-75
2021/01/26 05:59:20;;;;;;;6.40;1.77;;;;;;;0.16;100.00;98710.47;3845520;76;394030;-75
2021/01/26 06:04:42;;;;;;;3.33;2.00;;;;;;;0.23;100.00;98704.50;3845223;76;396319;-75
2021/01/26 06:10:18;;;;;;;9.77;5.53;;;;;;;0.26;100.00;98711.91;3780116;75;3529658;-75
2021/01/26 06:15:41;;;;;;;2.43;2.23;;;;;;;0.28;100.00;98716.42;3848781;73;396343;-75
2021/01/26 06:21:14;;;;;;;2.40;1.03;;;;;;;0.32;100.00;98724.87;3845777;76;396331;-75
2021/01/26 06:26:38;;;;;;;1.10;1.00;;;;;;;0.34;100.00;98735.34;3846221;76;395434;-74
2021/01/26 06:32:11;;;;;;;3.13;1.73;;;;;;;0.38;100.00;98738.95;3846733;76;396034;-75
2021/01/26 06:37:56;;;;;;;3.10;1.77;;;;;;;0.43;100.00;98734.09;3845667;76;396074;-76
2021/01/26 06:43:48;;;;;;;8.63;2.17;;;;;;;0.47;100.00;98734.20;3840303;76;400197;-77
2021/01/26 06:49:24;;;;;;;7.27;2.00;;;;;;;0.55;100.00;98727.86;3828533;76;388741;-76
2021/01/26 06:55:15;;;;;;;1.30;1.20;;;;;;;0.64;100.00;98740.70;3828084;75;391858;-76
2021/01/26 07:00:57;;;;;;;5.83;2.77;;;;;;;0.60;100.00;98731.67;3827947;75;396334;-77
2021/01/26 07:06:30;;;;;;;2.00;1.90;;;;;;;0.62;100.00;98734.83;3827675;75;396090;-76
2021/01/26 07:11:57;;;;;;;5.33;2.23;;;;;;;0.58;100.00;98746.91;3828374;74;396307;-76
2021/01/26 07:17:36;;;;;;;2.03;1.77;;;;;;;0.54;100.00;98741.17;3827648;75;396098;-77
2021/01/26 07:23:24;;;;;;;4.90;3.13;;;;;;;0.58;100.00;98737.98;3827849;75;396099;-77
2021/01/26 07:29:10;;;;;;;3.83;1.77;;;;;;;0.72;100.00;98747.31;3829183;73;396344;-76
2021/01/26 07:34:35;;;;;;;9.80;3.43;;;;;;;0.78;100.00;98748.64;3828350;75;394990;-77
2021/01/26 07:40:06;;;;;;;0.80;0.50;;;;;;;0.86;100.00;98747.70;3831332;75;383862;-77
2021/01/26 07:45:37;;;;;;;0.90;0.73;;;;;;;0.95;100.00;98762.70;3807639;76;383838;-77
2021/01/26 07:51:01;;;;;;;3.53;1.43;;;;;;;0.98;100.00;98779.59;3828407;77;392989;-77
2021/01/26 07:56:37;;;;;;;2.23;1.47;;;;;;;0.91;100.00;98784.04;3827951;75;396126;-78
2021/01/26 08:02:04;;;;;;;9.40;3.80;;;;;;;0.85;100.00;98778.62;3828299;75;396303;-77
2021/01/26 08:07:28;;;;;;;0.90;0.70;;;;;;;0.82;100.00;98785.52;3829594;74;387748;-77
2021/01/26 08:12:50;;;;;;;4.93;0.73;;;;;;;0.87;100.00;98794.77;3828524;75;390812;-77
2021/01/26 08:18:21;;;;;;;1.50;1.10;;;;;;;0.99;100.00;98790.66;3828203;75;395276;-78
2021/01/26 08:23:43;;;;;;;4.50;3.67;;;;;;;1.07;100.00;98791.66;3827341;75;390902;-78
2021/01/26 08:29:04;;;;;;;0.93;0.83;;;;;;;1.04;100.00;98796.39;3829288;75;383800;-78
2021/01/26 08:34:28;;;;;;;0.80;0.63;;;;;;;1.17;100.00;98796.01;3829005;75;383578;-78
2021/01/26 08:39:50;;;;;;;2.77;2.50;;;;;;;1.16;100.00;98802.55;3827743;75;396122;-78
2021/01/26 08:45:17;;;;;;;0.90;0.83;;;;;;;1.22;100.00;98803.87;3829124;75;389826;-78
2021/01/26 08:50:56;;;;;;;1.87;1.43;;;;;;;1.27;100.00;98813.14;3827862;75;396115;-78
2021/01/26 08:56:26;;;;;;;1.63;0.90;;;;;;;1.34;100.00;98824.72;3828439;75;394254;-77
2021/01/26 09:01:49;;;;;;;0.80;0.40;;;;;;;1.37;100.00;98821.33;3829317;77;383838;-80
2021/01/26 09:07:11;;;;;;;0.80;0.53;;;;;;;1.46;100.00;98828.16;3829013;75;383784;-78
2021/01/26 09:12:32;;;;;;;1.50;1.13;;;;;;;1.54;100.00;98841.35;3827951;75;392939;-79
2021/01/26 09:17:56;;;;;;;0.90;0.77;;;;;;;1.58;100.00;98838.38;3829277;75;383806;-78
2021/01/26 09:23:20;;;;;;;0.93;0.80;;;;;;;1.62;100.00;98844.70;3828871;75;388014;-80
2021/01/26 09:28:44;;;;;;;0.80;0.50;;;;;;;1.66;100.00;98850.22;3829685;75;383850;-80
2021/01/26 09:34:08;;;;;;;1.47;0.67;;;;;;;1.73;100.00;98869.38;3828510;75;390147;-80
2021/01/26 09:39:29;;;;;;;1.50;1.07;;;;;;;1.74;100.00;98858.75;3828134;75;393988;-81
2021/01/26 09:44:59;;;;;;;0.90;0.57;;;;;;;1.74;100.00;98860.11;3829268;75;383800;-81
2021/01/26 09:50:22;;;;;;;0.80;0.63;;;;;;;1.76;100.00;98878.19;3829790;74;383831;-81
2021/01/26 09:55:44;;;;;;;0.80;0.60;;;;;;;1.82;100.00;98865.95;3829165;75;383824;-82
2021/01/26 10:01:06;;;;;;;0.80;0.40;;;;;;;1.76;100.00;98873.54;3829598;75;383602;-82
2021/01/26 10:06:28;;;;;;;1.00;0.80;;;;;;;1.78;100.00;98888.09;3829212;75;388075;-81
2021/01/26 10:11:50;;;;;;;1.37;0.97;;;;;;;1.67;100.00;98896.53;3828032;75;393995;-81
2021/01/26 10:17:18;;;;;;;0.90;0.70;;;;;;;1.67;100.00;98901.95;3829348;75;385627;-81
2021/01/26 10:22:37;;;;;;;0.80;0.40;;;;;;;1.71;100.00;98887.91;3829922;74;383582;-81
2021/01/26 10:28:24;;;;;;;2.27;2.07;;;;;;;1.62;100.00;98903.53;3828171;75;391905;-80
2021/01/26 10:33:45;;;;;;;0.80;0.40;;;;;;;1.64;100.00;98910.21;3829240;75;383579;-80
2021/01/26 10:39:24;;;;;;;0.80;0.50;;;;;;;1.68;100.00;98912.44;3829348;75;383579;-80
2021/01/26 10:44:52;;;;;;;1.00;0.83;;;;;;;1.82;100.00;98929.09;3828899;75;392165;-81
2021/01/26 10:50:28;;;;;;;1.73;1.63;;;;;;;1.76;100.00;98929.13;3828261;75;392961;-81
2021/01/26 10:55:49;;;;;;;0.80;0.50;;;;;;;1.86;100.00;98931.34;3829560;75;383574;-80
2021/01/26 11:01:13;;;;;;;0.87;0.67;;;;;;;1.85;100.00;98924.34;3829136;75;383783;-81
2021/01/26 11:06:34;;;;;;;1.00;0.80;;;;;;;1.91;100.00;98928.38;3829488;75;384005;-80
2021/01/26 11:11:55;;;;;;;1.37;1.10;;;;;;;1.96;100.00;98923.27;3828377;75;396346;-80
2021/01/26 11:17:17;;;;;;;1.97;0.57;;;;;;;1.96;100.00;98938.19;3828536;75;390151;-80
2021/01/26 11:22:39;;;;;;;2.73;0.90;;;;;;;2.06;100.00;98940.41;3828532;75;390101;-80
2021/01/26 11:28:01;;;;;;;1.57;1.13;;;;;;;2.07;100.00;98931.14;3827888;75;396161;-80
2021/01/26 11:33:22;;;;;;;0.80;0.50;;;;;;;2.04;100.00;98950.81;3829472;75;383590;-80
2021/01/26 11:38:43;;;;;;;0.90;0.63;;;;;;;2.08;100.00;98947.64;3829191;75;388071;-79
2021/01/26 11:44:04;;;;;;;1.10;1.00;;;;;;;2.03;100.00;98956.01;3828937;75;383574;-80
2021/01/26 11:49:25;;;;;;;3.53;2.60;;;;;;;2.10;100.00;98958.36;3828549;75;394219;-80
2021/01/26 11:54:47;;;;;;;0.90;0.70;;;;;;;2.06;100.00;98960.75;3828921;75;391909;-80
2021/01/26 12:00:10;;;;;;;0.93;0.83;;;;;;;2.04;100.00;98965.18;3829010;75;383584;-80
2021/01/26 12:05:34;;;;;;;0.90;0.80;;;;;;;2.04;100.00;98982.81;3828811;75;392146;-80
2021/01/26 12:10:55;;;;;;;0.80;0.57;;;;;;;2.03;100.00;98977.16;3829159;75;383567;-79
2021/01/26 12:16:17;;;;;;;0.80;0.60;;;;;;;1.99;100.00;98974.91;3829168;76;383916;-79
2021/01/26 12:21:38;;;;;;;0.90;0.70;;;;;;;2.00;100.00;98981.13;3829147;77;383574;-79
2021/01/26 12:27:00;;;;;;;1.27;0.70;;;;;;;2.11;100.00;98991.14;3828980;75;385973;-79
2021/01/26 12:32:21;;;;;;;2.27;2.10;;;;;;;2.09;100.00;98987.98;3828669;75;383567;-79
2021/01/26 12:37:42;;;;;;;0.80;0.60;;;;;;;2.01;100.00;98989.50;3829388;75;383800;-79
2021/01/26 12:43:03;;;;;;;0.90;0.60;;;;;;;1.97;100.00;98984.53;3829108;75;383571;-79
2021/01/26 12:48:24;;;;;;;0.80;0.43;;;;;;;1.92;100.00;98998.34;3841817;76;383795;-80
2021/01/26 12:53:45;;;;;;;2.30;1.10;;;;;;;1.95;100.00;98997.64;3845829;76;389889;-80
2021/01/26 12:59:07;;;;;;;0.80;0.50;;;;;;;1.90;100.00;98995.17;3846921;76;383783;-80
2021/01/26 13:04:28;;;;;;;1.30;0.93;;;;;;;1.89;100.00;99013.39;3845733;76;394231;-80
2021/01/26 13:09:51;;;;;;;1.87;0.80;;;;;;;1.94;100.00;99015.07;3847269;75;394034;-81
2021/01/26 13:15:15;;;;;;;0.80;0.40;;;;;;;1.74;100.00;99010.02;3847251;76;383571;-81
2021/01/26 13:20:37;;;;;;;3.00;0.63;;;;;;;1.62;100.00;99012.77;3846096;76;386836;-81
2021/01/26 13:25:59;;;;;;;1.47;1.37;;;;;;;1.64;100.00;99021.91;3846197;76;390495;-81
2021/01/26 13:31:20;;;;;;;1.93;0.93;;;;;;;1.57;100.00;99014.92;3846506;76;383586;-81
2021/01/26 13:36:41;;;;;;;1.43;0.73;;;;;;;1.58;100.00;99013.22;3847898;75;389810;-81
2021/01/26 13:42:03;;;;;;;2.20;1.50;;;;;;;1.64;100.00;99019.20;3845585;76;391896;-80
2021/01/26 13:47:24;;;;;;;0.80;0.40;;;;;;;1.73;100.00;99018.51;3840570;76;383851;-80
2021/01/26 13:52:46;;;;;;;2.27;1.83;;;;;;;1.79;100.00;99030.69;3828325;75;392252;-80
2021/01/26 13:58:09;;;;;;;1.67;0.60;;;;;;;1.81;100.00;99040.08;3828777;75;386664;-80
2021/01/26 14:03:30;;;;;;;1.00;0.90;;;;;;;1.77;100.00;99048.66;3828131;75;390067;-80
2021/01/26 14:08:52;;;;;;;8.33;1.07;;;;;;;1.87;100.00;99056.87;3829074;75;383571;-80
2021/01/26 14:14:13;;;;;;;0.90;0.63;;;;;;;1.85;100.00;99051.03;3829481;75;383578;-79
2021/01/26 14:19:35;;;;;;;1.43;1.33;;;;;;;1.92;100.00;99060.73;3867738;75;392143;-79
2021/01/26 14:24:56;;;;;;;0.97;0.87;;;;;;;1.99;100.00;99065.77;3893302;75;391907;-80
2021/01/26 14:30:21;;;;;;;1.30;1.20;;;;;;;1.94;100.00;99065.25;3893100;74;388018;-79
2021/01/26 14:35:42;;;;;;;0.80;0.70;;;;;;;1.96;100.00;99073.81;3896036;75;383825;-79
2021/01/26 14:41:03;;;;;;;0.80;0.60;;;;;;;2.01;100.00;99085.22;3893782;75;383798;-79
2021/01/26 14:46:29;;;;;;;1.33;1.23;;;;;;;2.00;100.00;99093.70;3893799;74;391922;-79
2021/01/26 14:51:50;;;;;;;0.90;0.70;;;;;;;1.90;100.00;99102.31;3932992;74;387773;-80
2021/01/26 14:57:11;;;;;;;0.83;0.73;;;;;;;1.87;100.00;99099.72;3933816;74;383568;-80
2021/01/26 15:02:32;;;;;;;1.10;1.00;;;;;;;1.83;100.00;99103.46;3932347;74;391953;-80
2021/01/26 15:07:54;;;;;;;0.80;0.50;;;;;;;1.91;100.00;99112.81;3933357;74;383548;-80
2021/01/26 15:13:15;;;;;;;2.00;0.97;;;;;;;1.87;100.00;99117.35;3932834;74;387865;-80
2021/01/26 15:18:36;;;;;;;1.03;0.50;;;;;;;1.83;100.00;99123.80;3933045;74;387794;-80
2021/01/26 15:23:58;;;;;;;0.93;0.67;;;;;;;1.84;100.00;99134.88;3933383;74;387777;-79
2021/01/26 15:29:20;;;;;;;0.80;0.60;;;;;;;1.79;100.00;99139.97;3933539;74;383809;-80
2021/01/26 15:34:42;;;;;;;1.80;1.60;;;;;;;1.84;100.00;99142.43;3932808;74;385916;-79
2021/01/26 15:40:06;;;;;;;1.67;1.57;;;;;;;1.87;100.00;99143.66;3932225;74;387960;-79
2021/01/26 15:45:27;;;;;;;1.27;1.07;;;;;;;1.82;100.00;99151.47;3917868;74;387771;-80
2021/01/26 15:50:48;;;;;;;1.63;1.43;;;;;;;1.81;100.00;99150.46;3901587;74;395582;-80
2021/01/26 15:56:09;;;;;;;1.13;1.03;;;;;;;1.70;100.00;99150.68;3893508;75;383585;-80
2021/01/26 16:01:30;;;;;;;1.30;1.20;;;;;;;1.69;100.00;99165.39;3893143;75;392995;-80
2021/01/26 16:06:52;;;;;;;1.23;1.13;;;;;;;1.55;100.00;99174.98;3893205;74;396078;-79
2021/01/26 16:12:14;;;;;;;0.90;0.80;;;;;;;1.64;100.00;99184.58;3893883;75;387803;-79
2021/01/26 16:17:36;;;;;;;3.77;1.40;;;;;;;1.55;100.00;99187.18;3892826;74;396029;-79
2021/01/26 16:22:57;;;;;;;0.90;0.60;;;;;;;1.62;100.00;99205.27;3893324;74;388128;-79
2021/01/26 16:28:19;;;;;;;1.00;0.90;;;;;;;1.63;100.00;99214.17;3893629;75;391903;-79
2021/01/26 16:33:40;;;;;;;2.40;1.37;;;;;;;1.62;100.00;99222.88;3892886;74;396085;-79
2021/01/26 16:39:01;;;;;;;2.20;1.37;;;;;;;1.56;100.00;99231.56;3892643;75;393993;-79
2021/01/26 16:44:22;;;;;;;2.70;1.50;;;;;;;1.65;100.00;99234.42;3892784;75;396362;-79
2021/01/26 16:49:44;;;;;;;4.60;2.67;;;;;;;1.76;100.00;99237.48;3909524;74;396116;-79
2021/01/26 16:55:07;;;;;;;1.77;0.93;;;;;;;1.62;100.00;99245.13;3932787;74;395327;-79
2021/01/26 17:00:31;;;;;;;1.90;1.80;;;;;;;1.63;100.00;99249.42;3932258;74;392944;-79
2021/01/26 17:05:54;;;;;;;0.80;0.70;;;;;;;1.61;100.00;99249.77;3933881;74;383529;-80
2021/01/26 17:11:15;;;;;;;2.03;1.93;;;;;;;1.57;100.00;99259.48;3932123;74;396431;-79
2021/01/26 17:16:37;;;;;;;0.93;0.80;;;;;;;1.52;100.00;99268.63;3932725;74;392206;-80
2021/01/26 17:21:59;;;;;;;4.70;3.83;;;;;;;1.49;100.00;99265.79;3931994;74;396120;-80
2021/01/26 17:27:20;;;;;;;1.00;0.77;;;;;;;1.40;100.00;99271.28;3931499;74;392194;-80
2021/01/26 17:32:41;;;;;;;4.40;2.90;;;;;;;1.51;100.00;99274.36;3932955;74;387786;-81
2021/01/26 17:38:03;;;;;;;1.87;1.23;;;;;;;1.66;100.00;99282.07;3932096;74;394009;-80
2021/01/26 17:43:25;;;;;;;3.23;2.87;;;;;;;1.64;100.00;99281.64;3932027;74;391918;-81
2021/01/26 17:48:52;;;;;;;3.03;1.57;;;;;;;1.61;100.00;99284.23;3932437;74;391852;-80
2021/01/26 17:54:12;;;;;;;1.33;1.17;;;;;;;1.73;100.00;99284.23;3935485;74;383573;-79
2021/01/26 17:59:33;;;;;;;3.87;2.77;;;;;;;1.78;100.00;99281.30;3931965;74;393961;-80
2021/01/26 18:04:54;;;;;;;3.03;1.27;;;;;;;1.72;100.00;99293.50;3933036;74;388054;-80
2021/01/26 18:10:17;;;;;;;3.53;2.83;;;;;;;1.72;100.00;99294.86;3932246;74;396024;-79
2021/01/26 18:15:38;;;;;;;2.17;2.00;;;;;;;1.72;100.00;99301.09;3932719;74;385668;-79
2021/01/26 18:20:59;;;;;;;1.97;1.10;;;;;;;1.74;100.00;99307.52;3933015;74;391863;-80
2021/01/26 18:26:20;;;;;;;1.97;1.87;;;;;;;1.73;100.00;99311.36;3932241;74;396192;-79
2021/01/26 18:31:42;;;;;;;2.10;1.73;;;;;;;1.69;100.00;99311.81;3931842;74;396080;-79
2021/01/26 18:37:04;;;;;;;3.30;1.80;;;;;;;1.76;100.00;99318.83;3932232;74;396076;-80
2021/01/26 18:42:26;;;;;;;8.20;2.90;;;;;;;1.71;100.00;99321.73;3932524;74;396068;-80
2021/01/26 18:47:47;;;;;;;3.63;2.43;;;;;;;1.66;100.00;99325.45;3932688;74;396400;-80
2021/01/26 18:53:10;;;;;;;2.63;1.10;;;;;;;1.62;100.00;99329.98;3897891;74;394214;-81
2021/01/26 18:58:31;;;;;;;1.10;1.00;;;;;;;1.65;100.00;99338.81;3893564;74;383821;-80
2021/01/26 19:03:52;;;;;;;2.63;1.67;;;;;;;1.57;100.00;99340.23;3893247;74;391880;-80
2021/01/26 19:09:14;;;;;;;1.73;1.63;;;;;;;1.57;100.00;99341.59;3892758;74;396387;-80
2021/01/26 19:14:36;;;;;;;2.40;2.27;;;;;;;1.59;100.00;99337.99;3893225;75;394004;-81
2021/01/26 19:19:58;;;;;;;1.40;0.80;;;;;;;1.54;100.00;99355.80;3893571;75;383577;-82
2021/01/26 19:25:21;;;;;;;1.43;1.17;;;;;;;1.34;100.00;99359.90;3892865;75;396408;-81
2021/01/26 19:30:42;;;;;;;1.53;1.43;;;;;;;1.25;100.00;99356.50;3895316;75;385613;-81
2021/01/26 19:36:04;;;;;;;3.50;1.73;;;;;;;1.21;100.00;99352.84;3892759;75;394988;-80
2021/01/26 19:41:25;;;;;;;1.27;1.17;;;;;;;1.18;100.00;99357.56;3892658;74;395129;-80
2021/01/26 19:46:46;;;;;;;0.93;0.80;;;;;;;1.23;100.00;99366.86;3893512;75;385912;-80
2021/01/26 19:52:08;;;;;;;1.33;1.23;;;;;;;1.32;100.00;99372.43;3893517;74;383565;-80
2021/01/26 19:57:29;;;;;;;1.63;1.23;;;;;;;1.33;100.00;99364.54;3892514;75;396125;-80
2021/01/26 20:02:52;;;;;;;1.63;0.73;;;;;;;1.33;100.00;99365.89;3893185;75;393990;-80
2021/01/26 20:08:14;;;;;;;0.90;0.77;;;;;;;1.40;100.00;99378.34;3893998;74;383600;-79
2021/01/26 20:13:35;;;;;;;1.13;0.63;;;;;;;1.34;100.00;99376.97;3893349;74;389100;-80
2021/01/26 20:18:57;;;;;;;3.73;1.90;;;;;;;1.47;100.00;99379.95;3892520;75;396375;-79
2021/01/26 20:24:19;;;;;;;10.37;4.57;;;;;;;1.49;100.00;99386.41;3892573;74;396037;-79
2021/01/26 20:29:40;;;;;;;1.87;1.73;;;;;;;1.53;100.00;99396.27;3892767;74;396322;-79
2021/01/26 20:35:01;;;;;;;1.57;1.47;;;;;;;1.60;100.00;99390.52;3892671;75;391849;-79
2021/01/26 20:40:25;;;;;;;1.27;1.17;;;;;;;1.56;100.00;99391.52;3893378;75;392205;-79
2021/01/26 20:45:48;;;;;;;2.67;2.13;;;;;;;1.56;100.00;99399.64;3893030;75;393956;-79
2021/01/26 20:51:11;;;;;;;0.90;0.60;;;;;;;1.50;100.00;99399.63;3903318;74;383576;-79
2021/01/26 20:56:33;;;;;;;1.40;1.30;;;;;;;1.53;100.00;99405.75;3932671;74;387701;-79
2021/01/26 21:01:55;;;;;;;1.17;1.00;;;;;;;1.56;100.00;99405.64;3932986;74;383557;-79
2021/01/26 21:07:17;;;;;;;4.03;1.60;;;;;;;1.53;100.00;99395.45;3932506;74;394332;-79
2021/01/26 21:12:38;;;;;;;2.57;1.37;;;;;;;1.50;100.00;99400.98;3931979;74;396129;-79
2021/01/26 21:18:01;;;;;;;1.10;0.77;;;;;;;1.45;100.00;99399.03;3932514;74;391887;-79
2021/01/26 21:23:23;;;;;;;0.90;0.63;;;;;;;1.36;100.00;99394.24;3933201;74;385901;-79
2021/01/26 21:28:46;;;;;;;9.27;2.30;;;;;;;1.29;100.00;99404.28;3932902;74;393986;-79
2021/01/26 21:34:07;;;;;;;0.80;0.60;;;;;;;1.29;100.00;99394.80;3933354;74;383584;-78
2021/01/26 21:39:28;;;;;;;2.40;1.80;;;;;;;1.20;100.00;99400.03;3932030;74;392346;-79
2021/01/26 21:44:49;;;;;;;4.03;0.97;;;;;;;1.15;100.00;99405.08;3931964;74;393975;-79
2021/01/26 21:50:11;;;;;;;1.00;0.90;;;;;;;1.14;100.00;99404.84;3932948;74;391871;-79
2021/01/26 21:55:32;;;;;;;1.87;1.10;;;;;;;1.10;100.00;99403.12;3932564;74;385663;-78
2021/01/26 22:00:53;;;;;;;2.03;0.97;;;;;;;1.08;100.00;99404.81;3932932;74;383607;-78
2021/01/26 22:06:14;;;;;;;0.93;0.80;;;;;;;1.07;100.00;99401.88;3933250;74;391857;-78
2021/01/26 22:11:35;;;;;;;4.20;1.60;;;;;;;1.08;100.00;99403.46;3932144;74;396348;-78
2021/01/26 22:16:56;;;;;;;1.77;1.30;;;;;;;1.08;100.00;99404.81;3932178;74;395090;-78
2021/01/26 22:22:18;;;;;;;1.00;0.90;;;;;;;1.08;100.00;99404.81;3932654;74;385644;-78
2021/01/26 22:27:39;;;;;;;2.50;1.53;;;;;;;1.05;100.00;99407.39;3932697;74;387030;-78
2021/01/26 22:33:00;;;;;;;2.10;1.10;;;;;;;1.08;100.00;99403.46;3933225;74;383552;-78
2021/01/26 22:38:22;;;;;;;2.23;1.33;;;;;;;1.07;100.00;99408.64;3932615;74;383541;-77
2021/01/26 22:43:43;;;;;;;1.00;0.90;;;;;;;1.08;100.00;99404.81;3932516;74;392154;-78
2021/01/26 22:49:05;;;;;;;0.80;0.70;;;;;;;1.09;100.00;99407.76;3933122;74;391899;-78
2021/01/26 22:54:26;;;;;;;1.03;0.93;;;;;;;1.04;100.00;99404.45;3906133;74;387759;-78
2021/01/26 22:59:47;;;;;;;2.30;1.70;;;;;;;1.03;100.00;99409.62;3892533;74;396034;-78
2021/01/26 23:05:10;;;;;;;1.47;1.37;;;;;;;0.98;100.00;99405.20;3892518;75;391950;-77
2021/01/26 23:10:35;;;;;;;1.50;0.90;;;;;;;1.03;100.00;99404.21;3893198;75;395339;-78
2021/01/26 23:15:58;;;;;;;0.90;0.70;;;;;;;0.97;100.00;99399.55;3894180;75;385664;-78
2021/01/26 23:21:18;;;;;;;0.97;0.87;;;;;;;0.90;100.00;99395.22;3893519;75;392136;-78
2021/01/26 23:26:39;;;;;;;2.23;1.53;;;;;;;0.90;100.00;99404.69;3893264;75;388740;-78
2021/01/26 23:32:00;;;;;;;1.83;1.37;;;;;;;0.91;100.00;99390.03;3892778;75;396081;-77
2021/01/26 23:37:22;;;;;;;1.30;1.20;;;;;;;0.85;100.00;99390.55;3893119;74;394054;-76
2021/01/26 23:42:43;;;;;;;3.00;1.00;;;;;;;0.85;100.00;99391.89;3892805;75;394996;-76
2021/01/26 23:48:06;;;;;;;1.40;1.00;;;;;;;0.86;100.00;99390.23;3893417;75;396158;-76
2021/01/26 23:53:29;;;;;;;2.10;1.93;;;;;;;0.84;100.00;99395.18;3892516;74;394041;-77
2021/01/26 23:58:50;;;;;;;0.80;0.60;;;;;;;0.86;100.00;99386.72;3893477;75;383573;-76
